Time;durP1;ratioP1;P1;durP2;ratioP2;P2;SDS_P1;SDS_P2;PMS_P1;PMS_P2;Temp;Humidity;BMP_temperature;BMP_pressure;BME280_temperature;BME280_humidity;BME280_pressure;Samples;Min_cycle;Max_cycle;Signal;HPM_P1;HPM_P2
2023/05/03 00:01:10;;;;;;;14.73;9.40;;;11.80;99.90;;;10.94;100.00;98125.06;4955196;28;20492;-74
2023/05/03 00:03:36;;;;;;;12.33;8.23;;;11.90;99.90;;;10.93;100.00;98123.47;4954389;28;20442;-74
2023/05/03 00:06:10;;;;;;;10.38;7.68;;;11.90;99.90;;;10.93;100.00;98128.75;4953910;28;20425;-74
2023/05/03 00:08:36;;;;;;;15.15;9.45;;;11.90;99.90;;;10.93;100.00;98128.75;4954199;28;20413;-74
2023/05/03 00:11:02;;;;;;;13.15;9.18;;;11.90;99.90;;;10.95;100.00;98129.34;4954087;28;20772;-74
2023/05/03 00:13:28;;;;;;;14.77;9.00;;;11.90;99.90;;;10.95;100.00;98126.69;4954042;28;20455;-74
2023/05/03 00:15:53;;;;;;;15.15;9.27;;;11.90;99.90;;;10.95;100.00;98128.53;4953919;28;20497;-74
2023/05/03 00:18:22;;;;;;;12.83;8.63;;;11.80;99.90;;;10.92;100.00;98127.16;4952784;28;20406;-74
2023/05/03 00:20:50;;;;;;;15.85;9.73;;;11.90;99.90;;;10.90;100.00;98120.50;4953944;28;20417;-74
2023/05/03 00:23:16;;;;;;;12.75;8.48;;;11.80;99.90;;;10.85;100.00;98129.94;4953845;28;20800;-74
2023/05/03 00:25:42;;;;;;;11.70;8.60;;;11.80;99.90;;;10.81;100.00;98131.47;4953856;28;20414;-74
2023/05/03 00:28:08;;;;;;;13.60;8.82;;;11.80;99.90;;;10.79;100.00;98130.88;4953981;28;20414;-74
2023/05/03 00:30:33;;;;;;;16.10;10.35;;;11.80;99.90;;;10.77;100.00;98125.00;4953812;28;20406;-74
2023/05/03 00:32:59;;;;;;;14.68;9.45;;;11.70;99.90;;;10.73;100.00;98133.66;4953673;28;20788;-74
2023/05/03 00:35:28;;;;;;;15.30;9.60;;;11.70;99.90;;;10.68;100.00;98128.22;4953846;28;20450;-73
2023/05/03 00:37:54;;;;;;;15.38;9.70;;;11.70;99.90;;;10.64;100.00;98129.75;4952837;28;20420;-74
2023/05/03 00:40:20;;;;;;;13.32;9.15;;;11.60;99.90;;;10.59;100.00;98127.00;4953996;28;20496;-74
2023/05/03 00:42:46;;;;;;;13.52;8.88;;;11.50;99.90;;;10.53;100.00;98125.25;4997907;23;20427;-73
2023/05/03 00:45:12;;;;;;;13.55;8.90;;;11.50;99.90;;;10.50;100.00;98123.91;4933872;29;20404;-72
2023/05/03 00:47:38;;;;;;;13.60;9.37;;;11.50;99.90;;;10.43;100.00;98116.09;4932866;29;20855;-72
2023/05/03 00:50:06;;;;;;;15.38;9.15;;;11.40;99.90;;;10.36;100.00;98115.41;4932988;29;20415;-72
2023/05/03 00:52:34;;;;;;;13.00;8.05;;;11.30;99.90;;;10.31;100.00;98115.28;4934155;29;20415;-72
2023/05/03 00:55:00;;;;;;;14.68;9.25;;;11.30;99.90;;;10.27;100.00;98110.69;4933945;29;20901;-72
2023/05/03 00:57:27;;;;;;;16.08;8.88;;;11.20;99.90;;;10.23;100.00;98105.03;4932672;29;20447;-72
2023/05/03 00:59:54;;;;;;;13.35;8.95;;;11.20;99.90;;;10.16;100.00;98103.53;4933934;29;20938;-72
2023/05/03 01:02:20;;;;;;;14.00;9.20;;;11.10;99.90;;;10.13;100.00;98109.28;4934161;29;20443;-73
2023/05/03 01:04:46;;;;;;;15.80;9.70;;;11.10;99.90;;;10.07;100.00;98106.50;4932641;29;20967;-72
2023/05/03 01:07:25;;;;;;;12.15;8.98;;;11.10;99.90;;;10.02;100.00;98109.03;4933779;29;20423;-72
2023/05/03 01:10:05;;;;;;;13.60;8.88;;;11.10;99.90;;;10.03;100.00;98113.31;4933759;29;20450;-72
2023/05/03 01:12:43;;;;;;;13.65;9.10;;;10.90;99.90;;;9.91;100.00;98109.84;4933749;29;20407;-72
2023/05/03 01:15:16;;;;;;;11.60;8.40;;;10.90;99.90;;;9.72;100.00;98105.69;4933625;29;20423;-72
2023/05/03 01:17:53;;;;;;;13.90;8.90;;;10.70;99.90;;;9.68;100.00;98107.19;4933688;29;20407;-72
2023/05/03 01:20:29;;;;;;;13.20;8.43;;;10.60;99.90;;;9.60;100.00;98103.03;4933464;29;20407;-72
2023/05/03 01:23:08;;;;;;;13.07;8.40;;;10.50;99.90;;;9.44;100.00;98108.97;4933666;29;20414;-72
2023/05/03 01:25:36;;;;;;;12.60;8.00;;;10.40;99.90;;;9.32;100.00;98110.78;4933702;29;20430;-72
2023/05/03 01:28:02;;;;;;;14.68;9.48;;;10.30;99.90;;;9.33;100.00;98101.78;4933451;29;20419;-72
2023/05/03 01:30:30;;;;;;;13.32;8.63;;;10.30;99.90;;;9.20;100.00;98094.06;4933436;29;20447;-72
2023/05/03 01:33:08;;;;;;;14.00;9.18;;;10.20;99.90;;;9.19;100.00;98093.25;4933440;29;20407;-72
2023/05/03 01:35:43;;;;;;;12.63;8.50;;;10.20;99.90;;;9.15;100.00;98088.66;4932181;29;20887;-72
2023/05/03 01:38:10;;;;;;;14.75;8.85;;;10.20;99.90;;;9.13;100.00;98090.69;4933286;29;20408;-73
2023/05/03 01:40:45;;;;;;;13.93;9.13;;;10.10;99.90;;;9.10;100.00;98086.66;4933196;29;20399;-72
2023/05/03 01:43:15;;;;;;;13.77;8.50;;;10.10;99.90;;;9.02;100.00;98094.13;4933129;29;20826;-72
2023/05/03 01:45:41;;;;;;;15.20;9.68;;;10.00;99.90;;;9.09;100.00;98094.84;4931961;29;20880;-73
2023/05/03 01:48:13;;;;;;;17.08;10.30;;;10.00;99.90;;;9.02;100.00;98094.13;4933203;29;20415;-73
2023/05/03 01:50:39;;;;;;;11.95;8.18;;;10.00;99.90;;;8.93;100.00;98083.06;4933438;29;20778;-73
2023/05/03 01:53:05;;;;;;;17.77;10.33;;;9.90;99.90;;;8.94;100.00;98084.66;4933080;29;20518;-72
2023/05/03 01:55:31;;;;;;;13.98;8.80;;;9.90;99.90;;;8.79;100.00;98087.69;4933004;29;20523;-72
2023/05/03 01:57:58;;;;;;;16.40;9.82;;;9.80;99.90;;;8.77;100.00;98086.31;4932899;29;20423;-72
2023/05/03 02:00:25;;;;;;;17.33;9.63;;;9.80;99.90;;;8.82;100.00;98083.78;4933032;29;20502;-72
2023/05/03 02:02:51;;;;;;;13.80;9.40;;;9.80;99.90;;;8.83;100.00;98091.50;4933070;29;20410;-72
2023/05/03 02:05:16;;;;;;;14.25;9.32;;;9.80;99.90;;;8.66;100.00;98081.75;4932233;29;20968;-72
2023/05/03 02:07:42;;;;;;;17.80;9.88;;;9.70;99.90;;;8.65;100.00;98083.59;4932965;29;20411;-73
2023/05/03 02:10:13;;;;;;;12.90;9.25;;;9.70;99.90;;;8.64;100.00;98086.47;4932953;29;20508;-72
2023/05/03 02:12:39;;;;;;;15.60;9.82;;;9.70;99.90;;;8.62;100.00;98093.78;4932965;29;20810;-73
2023/05/03 02:15:08;;;;;;;12.00;9.35;;;9.60;99.90;;;8.56;100.00;98092.03;4932913;29;20424;-72
2023/05/03 02:17:34;;;;;;;15.50;10.77;;;9.60;99.90;;;8.61;100.00;98089.53;4932848;29;20407;-73
2023/05/03 02:20:00;;;;;;;17.88;10.05;;;9.60;99.90;;;8.57;100.00;98086.53;4931719;29;20426;-72
2023/05/03 02:22:26;;;;;;;20.88;10.10;;;9.60;99.90;;;8.55;100.00;98088.59;4931615;29;20415;-72
2023/05/03 02:24:52;;;;;;;14.52;9.35;;;9.60;99.90;;;8.46;100.00;98095.19;4932894;29;20404;-72
2023/05/03 02:27:18;;;;;;;15.80;9.77;;;9.50;99.90;;;8.38;100.00;98090.19;4932811;29;20471;-72
2023/05/03 02:29:44;;;;;;;16.85;10.50;;;9.40;99.90;;;8.34;100.00;98081.13;4932921;29;20427;-73
2023/05/03 02:32:11;;;;;;;14.13;9.13;;;9.40;99.90;;;8.31;100.00;98086.81;4932859;29;20481;-73
2023/05/03 02:34:38;;;;;;;23.73;11.50;;;9.40;99.90;;;8.40;100.00;98083.69;4932766;29;20427;-73
2023/05/03 02:37:04;;;;;;;17.53;10.40;;;9.40;99.90;;;8.38;100.00;98087.56;4932589;29;20424;-73
2023/05/03 02:39:30;;;;;;;15.07;9.60;;;9.40;99.90;;;8.28;100.00;98084.59;4932718;29;20508;-72
2023/05/03 02:41:56;;;;;;;18.65;11.10;;;9.30;99.90;;;8.26;100.00;98078.75;4931435;29;20415;-73
2023/05/03 02:44:22;;;;;;;13.88;10.10;;;9.30;99.90;;;8.21;100.00;98078.56;4932886;29;20874;-72
2023/05/03 02:46:47;;;;;;;17.88;10.95;;;9.30;99.90;;;8.15;100.00;98077.63;4932579;29;20443;-73
2023/05/03 02:49:15;;;;;;;18.33;11.65;;;9.20;99.90;;;8.20;100.00;98082.22;4932756;29;20439;-73
2023/05/03 02:51:41;;;;;;;18.17;11.55;;;9.20;99.90;;;8.11;100.00;98081.72;4932523;29;20423;-72
2023/05/03 02:54:06;;;;;;;18.20;11.75;;;9.20;99.90;;;8.11;100.00;98079.91;4932576;29;20610;-72
2023/05/03 02:56:32;;;;;;;17.35;10.90;;;9.20;99.90;;;8.08;100.00;98087.44;4931333;29;20454;-73
2023/05/03 02:58:58;;;;;;;19.07;12.00;;;9.10;99.90;;;8.01;100.00;98076.94;4932785;29;20979;-72
2023/05/03 03:01:24;;;;;;;18.92;11.75;;;9.10;99.90;;;8.05;100.00;98082.56;4932597;29;20474;-72
2023/05/03 03:03:50;;;;;;;19.50;12.45;;;9.10;99.90;;;8.00;100.00;98083.25;4932748;29;20411;-72
2023/05/03 03:06:17;;;;;;;19.47;11.50;;;9.10;99.90;;;7.93;100.00;98077.22;4932593;29;20412;-72
2023/05/03 03:08:43;;;;;;;23.48;12.15;;;9.00;99.90;;;8.03;100.00;98082.00;4932703;29;20470;-73
2023/05/03 03:11:09;;;;;;;17.75;11.77;;;9.00;99.90;;;7.88;100.00;98081.53;4932476;29;20411;-73
2023/05/03 03:13:38;;;;;;;20.55;12.48;;;9.00;99.90;;;7.91;100.00;98081.09;4932521;29;20477;-72
2023/05/03 03:16:05;;;;;;;17.23;11.02;;;8.90;99.90;;;7.80;100.00;98080.00;4932856;29;20506;-73
2023/05/03 03:18:31;;;;;;;20.70;12.90;;;8.90;99.90;;;7.85;100.00;98076.69;4935905;29;20418;-72
2023/05/03 03:20:57;;;;;;;22.08;12.75;;;8.90;99.90;;;7.78;100.00;98079.38;4935730;29;20415;-74
2023/05/03 03:23:24;;;;;;;21.23;12.53;;;8.90;99.90;;;7.75;100.00;98077.97;4936120;29;20470;-74
2023/05/03 03:25:50;;;;;;;22.00;13.38;;;8.90;99.90;;;7.76;100.00;98082.22;4951129;29;20410;-74
2023/05/03 03:28:16;;;;;;;23.17;12.40;;;8.90;99.90;;;7.71;100.00;98083.91;4954960;28;20485;-74
2023/05/03 03:30:42;;;;;;;20.33;12.00;;;8.80;99.90;;;7.67;100.00;98078.25;4953466;28;20857;-74
2023/05/03 03:33:07;;;;;;;23.17;13.70;;;8.80;99.90;;;7.73;100.00;98080.06;4954860;28;20942;-74
2023/05/03 03:35:34;;;;;;;20.15;12.65;;;8.80;99.90;;;7.69;100.00;98078.03;4954713;28;20489;-74
2023/05/03 03:38:00;;;;;;;22.98;12.95;;;8.80;99.90;;;7.80;100.00;98079.19;4933766;28;20926;-74
2023/05/03 03:40:27;;;;;;;21.20;13.07;;;8.80;99.90;;;7.70;100.00;98087.56;4924565;29;20409;-74
2023/05/03 03:42:53;;;;;;;19.30;12.48;;;8.70;99.90;;;7.56;100.00;98086.88;4925257;29;20857;-74
2023/05/03 03:45:19;;;;;;;20.98;12.73;;;8.60;99.90;;;7.59;100.00;98090.91;4931911;29;20411;-73
2023/05/03 03:47:45;;;;;;;21.63;13.30;;;8.70;99.90;;;7.51;100.00;98089.34;4931266;29;20906;-74
2023/05/03 03:50:11;;;;;;;23.67;13.57;;;8.60;99.90;;;7.51;100.00;98096.44;4932178;29;20958;-73
2023/05/03 03:52:37;;;;;;;24.90;13.40;;;8.60;99.90;;;7.49;100.00;98094.00;4929343;29;20996;-73
2023/05/03 03:55:05;;;;;;;20.98;12.48;;;8.60;99.90;;;7.51;100.00;98099.06;4925027;29;20498;-72
2023/05/03 03:57:32;;;;;;;27.05;14.13;;;8.50;99.90;;;7.53;100.00;98102.28;4925675;29;20743;-73
2023/05/03 03:59:58;;;;;;;18.77;12.47;;;8.60;99.90;;;7.48;100.00;98104.75;4924404;29;20425;-74
2023/05/03 04:02:24;;;;;;;19.23;12.55;;;8.50;99.90;;;7.55;100.00;98102.88;4927870;29;20413;-74
2023/05/03 04:04:51;;;;;;;27.52;14.57;;;8.60;99.90;;;7.53;100.00;98102.28;4932412;29;20420;-73
2023/05/03 04:07:16;;;;;;;19.20;12.70;;;8.60;99.90;;;7.55;100.00;98100.25;4935077;29;20949;-74
2023/05/03 04:09:43;;;;;;;26.87;15.57;;;8.60;99.90;;;7.62;100.00;98098.38;4927357;29;20435;-74
2023/05/03 04:12:09;;;;;;;25.88;14.05;;;8.70;99.90;;;7.72;100.00;98098.69;4933695;29;20423;-74
2023/05/03 04:14:36;;;;;;;26.80;14.55;;;8.80;99.90;;;7.74;100.00;98107.22;4934802;29;20428;-74
2023/05/03 04:17:03;;;;;;;21.55;14.13;;;8.80;99.90;;;7.79;100.00;98110.00;4929106;29;20418;-75
2023/05/03 04:19:29;;;;;;;28.92;15.02;;;8.80;99.90;;;7.87;100.00;98116.81;4931827;29;20413;-73
2023/05/03 04:21:55;;;;;;;24.30;14.60;;;8.90;99.90;;;7.93;100.00;98115.97;4927860;29;20423;-74
2023/05/03 04:24:21;;;;;;;24.70;14.23;;;8.90;99.90;;;8.02;100.00;98125.22;4933511;29;20427;-74
2023/05/03 04:26:47;;;;;;;22.00;13.40;;;9.00;99.90;;;8.12;100.00;98125.50;4934848;29;20507;-74
2023/05/03 04:29:13;;;;;;;24.98;14.85;;;9.10;99.90;;;8.21;100.00;98124.22;4933983;29;20985;-76
2023/05/03 04:31:40;;;;;;;24.95;15.20;;;9.20;99.90;;;8.31;100.00;98129.03;4934430;29;20447;-74
2023/05/03 04:34:06;;;;;;;28.13;16.27;;;9.30;99.90;;;8.40;100.00;98131.19;4934188;29;20727;-74
2023/05/03 04:36:32;;;;;;;29.80;15.52;;;9.40;99.90;;;8.49;100.00;98132.47;4934498;29;20412;-74
2023/05/03 04:38:58;;;;;;;26.67;14.43;;;9.50;99.90;;;8.57;100.00;98128.75;4934512;29;20417;-74
2023/05/03 04:41:24;;;;;;;24.85;14.77;;;9.60;99.90;;;8.67;100.00;98133.50;4934331;29;20423;-74
2023/05/03 04:43:51;;;;;;;26.15;15.25;;;9.60;99.90;;;8.73;100.00;98132.63;4934295;29;20431;-74
2023/05/03 04:46:17;;;;;;;24.55;13.50;;;9.70;99.90;;;8.82;100.00;98129.47;4934222;29;20415;-74
2023/05/03 04:48:44;;;;;;;23.87;14.30;;;9.80;99.90;;;8.88;100.00;98135.69;4934266;29;20902;-74
2023/05/03 04:51:10;;;;;;;24.27;13.45;;;9.90;99.90;;;8.94;100.00;98134.84;4933854;29;20415;-75
2023/05/03 04:53:36;;;;;;;22.73;12.73;;;9.90;99.90;;;9.00;100.00;98133.13;4934089;29;20403;-74
2023/05/03 04:56:02;;;;;;;26.73;15.55;;;10.00;99.90;;;9.05;100.00;98142.00;4934134;29;20502;-74
2023/05/03 04:58:28;;;;;;;26.02;15.35;;;10.00;99.90;;;9.10;100.00;98146.59;4920430;29;20408;-74
2023/05/03 05:00:54;;;;;;;24.40;14.60;;;10.10;99.90;;;9.14;100.00;98150.41;4922934;29;20805;-73
2023/05/03 05:03:20;;;;;;;27.83;16.10;;;10.10;99.90;;;9.17;100.00;98147.34;4926875;29;20411;-73
2023/05/03 05:05:47;;;;;;;27.15;15.82;;;10.10;99.90;;;9.19;100.00;98134.69;4928204;29;20446;-74
2023/05/03 05:08:13;;;;;;;24.23;14.60;;;10.10;99.90;;;9.22;100.00;98144.84;4933673;29;20407;-73
2023/05/03 05:10:40;;;;;;;23.77;13.45;;;10.20;99.90;;;9.22;100.00;98148.28;4933678;29;21023;-73
2023/05/03 05:13:06;;;;;;;19.60;12.95;;;10.20;99.90;;;9.27;100.00;98145.78;4933974;29;20416;-74
2023/05/03 05:15:32;;;;;;;23.23;14.35;;;10.20;99.90;;;9.31;100.00;98144.31;4933696;29;20438;-74
2023/05/03 05:17:58;;;;;;;20.77;13.68;;;10.20;99.90;;;9.37;100.00;98139.97;4933055;29;20851;-74
2023/05/03 05:20:24;;;;;;;23.70;14.05;;;10.30;99.90;;;9.44;100.00;98143.31;4932444;29;20426;-74
2023/05/03 05:22:51;;;;;;;24.83;15.55;;;10.40;99.90;;;9.49;100.00;98142.63;4933928;29;20415;-73
2023/05/03 05:25:17;;;;;;;32.72;16.75;;;10.40;99.90;;;9.53;100.00;98141.16;4933674;29;20408;-73
2023/05/03 05:27:43;;;;;;;23.48;14.45;;;10.40;99.90;;;9.58;100.00;98139.44;4933699;29;20416;-74
2023/05/03 05:30:10;;;;;;;21.17;14.13;;;10.50;99.90;;;9.65;100.00;98141.97;4933820;29;20430;-74
2023/05/03 05:32:36;;;;;;;28.67;15.57;;;10.60;99.90;;;9.70;100.00;98145.56;4933075;29;20424;-74
2023/05/03 05:35:02;;;;;;;23.60;15.02;;;10.60;99.90;;;9.74;100.00;98151.22;4932556;29;20451;-74
2023/05/03 05:37:28;;;;;;;26.20;14.45;;;10.70;99.90;;;9.79;100.00;98147.88;4933058;29;20766;-74
2023/05/03 05:39:55;;;;;;;22.02;14.25;;;10.70;99.90;;;9.83;100.00;98141.91;4949339;28;20413;-74
2023/05/03 05:42:21;;;;;;;21.48;13.98;;;10.80;99.90;;;9.84;100.00;98145.38;4952681;28;20410;-74
2023/05/03 05:44:47;;;;;;;24.98;16.02;;;10.70;99.90;;;9.85;100.00;98149.63;4951134;28;20406;-75
2023/05/03 05:47:15;;;;;;;24.33;14.10;;;10.80;99.90;;;9.82;100.00;98144.78;4952463;28;20513;-74
2023/05/03 05:49:41;;;;;;;23.35;15.38;;;10.80;99.90;;;9.77;100.00;98153.41;4937772;28;20439;-76
2023/05/03 05:52:07;;;;;;;22.70;14.40;;;10.70;99.90;;;9.75;100.00;98147.53;4932357;29;20787;-74
2023/05/03 05:54:32;;;;;;;25.42;14.93;;;10.70;99.90;;;9.73;100.00;98152.22;4933541;29;20456;-74
2023/05/03 05:57:00;;;;;;;25.33;14.77;;;10.70;99.90;;;9.74;100.00;98153.84;4933937;29;20415;-75
2023/05/03 05:59:26;;;;;;;26.92;15.07;;;10.70;99.90;;;9.79;100.00;98148.69;4933312;29;20479;-75
2023/05/03 06:01:52;;;;;;;22.95;14.05;;;10.70;99.90;;;9.87;100.00;98143.06;4933096;29;20419;-75
2023/05/03 06:04:18;;;;;;;24.77;14.38;;;10.80;99.90;;;9.96;100.00;98149.63;4933331;29;20893;-74
2023/05/03 06:06:43;;;;;;;22.75;14.45;;;10.90;99.90;;;10.05;100.00;98134.25;4932964;29;20435;-74
2023/05/03 06:09:09;;;;;;;22.40;14.35;;;10.90;99.90;;;10.14;100.00;98138.16;4933223;29;20415;-75
2023/05/03 06:11:37;;;;;;;21.10;13.30;;;11.00;99.90;;;10.23;100.00;98143.91;4933357;29;20456;-74
2023/05/03 06:14:08;;;;;;;23.38;14.43;;;11.10;99.90;;;10.34;100.00;98148.41;4933255;29;20477;-74
2023/05/03 06:16:35;;;;;;;21.70;13.43;;;11.20;99.90;;;10.46;100.00;98146.56;4931920;29;20458;-73
2023/05/03 06:19:01;;;;;;;25.08;15.82;;;11.30;99.90;;;10.54;100.00;98145.41;4931766;29;20474;-75
2023/05/03 06:21:28;;;;;;;26.63;15.88;;;11.40;99.90;;;10.62;100.00;98142.41;4933149;29;20881;-74
2023/05/03 06:23:54;;;;;;;24.73;14.88;;;11.50;99.90;;;10.68;100.00;98138.81;4933048;29;20443;-74
2023/05/03 06:26:20;;;;;;;27.52;16.13;;;11.50;99.90;;;10.76;100.00;98146.41;4931767;29;20423;-74
2023/05/03 06:28:46;;;;;;;31.65;17.70;;;11.60;99.90;;;10.72;100.00;98147.94;4933205;29;20439;-74
2023/05/03 06:31:13;;;;;;;22.55;15.93;;;11.60;99.90;;;10.89;100.00;98143.53;4919908;29;20413;-74
2023/05/03 06:33:40;;;;;;;28.85;15.95;;;11.70;99.90;;;10.96;100.00;98152.16;4913888;29;20458;-74
2023/05/03 06:36:07;;;;;;;20.55;14.00;;;11.80;99.90;;;11.04;100.00;98148.31;4912750;29;20452;-74
2023/05/03 06:38:33;;;;;;;22.65;14.23;;;11.90;99.90;;;11.15;100.00;98152.78;4913151;29;20416;-75
2023/05/03 06:40:58;;;;;;;25.40;15.50;;;12.00;99.90;;;11.22;100.00;98153.44;4914878;29;20413;-74
2023/05/03 06:43:24;;;;;;;21.05;13.90;;;12.00;99.90;;;11.35;100.00;98153.16;4914009;29;20449;-76
2023/05/03 06:45:54;;;;;;;24.13;15.95;;;12.10;99.90;;;11.47;100.00;98148.63;4915207;29;20496;-75
2023/05/03 06:48:21;;;;;;;27.10;15.63;;;12.30;99.90;;;11.62;100.00;98156.03;4914342;29;20760;-75
2023/05/03 06:50:47;;;;;;;24.20;14.60;;;12.40;99.90;;;11.72;100.00;98152.75;4914037;29;20808;-76
2023/05/03 06:53:13;;;;;;;21.73;13.80;;;12.50;99.90;;;11.76;100.00;98165.31;4917740;29;20459;-76
2023/05/03 06:55:42;;;;;;;19.55;13.15;;;12.50;99.90;;;11.82;100.00;98153.75;4917925;29;20519;-75
2023/05/03 06:58:10;;;;;;;24.67;15.50;;;12.60;99.90;;;11.86;100.00;98159.41;4924901;29;20462;-77
2023/05/03 07:00:38;;;;;;;23.67;15.93;;;12.70;99.90;;;11.81;100.00;98152.13;4929041;28;20434;-75
2023/05/03 07:03:04;;;;;;;26.20;17.23;;;12.60;99.90;;;11.85;100.00;98147.97;4930204;29;20417;-75
2023/05/03 07:05:31;;;;;;;23.17;14.95;;;12.70;99.90;;;11.78;100.00;98143.88;4926826;29;20422;-74
2023/05/03 07:07:57;;;;;;;23.17;15.52;;;12.60;99.90;;;11.75;100.00;98145.16;4929560;29;20436;-74
2023/05/03 07:10:24;;;;;;;22.15;14.02;;;12.60;99.90;;;11.71;100.00;98130.75;4921682;29;22198;-74
2023/05/03 07:12:50;;;;;;;19.83;13.27;;;12.50;99.90;;;11.71;100.00;98130.75;4926215;29;20424;-74
2023/05/03 07:15:16;;;;;;;23.55;15.50;;;12.50;99.90;;;11.70;100.00;98131.78;4927294;29;21137;-75
2023/05/03 07:17:42;;;;;;;24.38;16.35;;;12.50;99.90;;;11.68;100.00;98133.84;4928609;29;20436;-74
2023/05/03 07:20:08;;;;;;;21.30;14.73;;;12.40;99.90;;;11.61;100.00;98127.91;4933014;29;20871;-74
2023/05/03 07:22:36;;;;;;;22.38;14.65;;;12.50;99.90;;;11.59;100.00;98129.97;4928526;29;20464;-73
2023/05/03 07:25:02;;;;;;;24.65;16.52;;;12.40;99.90;;;11.56;100.00;98123.31;4928220;29;20912;-75
2023/05/03 07:27:28;;;;;;;30.80;17.35;;;12.40;99.90;;;11.51;100.00;98117.13;4935917;29;20411;-75
2023/05/03 07:29:53;;;;;;;27.52;16.85;;;12.30;99.90;;;11.56;100.00;98122.53;4917322;29;20473;-75
2023/05/03 07:32:20;;;;;;;24.60;15.75;;;12.40;99.90;;;11.60;100.00;98119.16;4916715;29;20520;-75
2023/05/03 07:34:46;;;;;;;30.88;17.83;;;12.40;99.90;;;11.72;100.00;98123.59;4925014;29;20414;-74
2023/05/03 07:37:12;;;;;;;27.27;17.40;;;12.50;99.90;;;11.74;100.00;98124.97;4930462;29;20463;-74
2023/05/03 07:39:40;;;;;;;23.60;16.40;;;12.60;99.90;;;11.74;100.00;98126.78;4919512;29;20779;-74
2023/05/03 07:42:07;;;;;;;24.75;16.58;;;12.50;99.90;;;11.72;100.00;98116.44;4927588;29;20464;-76
2023/05/03 07:44:33;;;;;;;30.27;17.35;;;12.50;99.90;;;11.71;100.00;98124.63;4922431;29;20456;-74
2023/05/03 07:47:00;;;;;;;23.63;15.45;;;12.50;99.90;;;11.79;100.00;98118.97;4930595;29;20451;-74
2023/05/03 07:49:26;;;;;;;26.75;18.00;;;12.60;99.90;;;11.77;100.00;98121.03;4918370;29;20918;-74
2023/05/03 07:51:52;;;;;;;23.33;15.73;;;12.60;99.90;;;11.81;100.00;98122.97;4929670;29;20442;-74
2023/05/03 07:54:19;;;;;;;23.80;15.73;;;12.60;99.90;;;11.92;100.00;98115.97;4927758;29;20931;-74
2023/05/03 07:56:46;;;;;;;23.77;14.13;;;12.70;99.90;;;12.02;100.00;98111.66;4916134;29;20437;-74
2023/05/03 07:59:12;;;;;;;25.60;14.98;;;12.80;99.90;;;12.12;100.00;98113.63;4931167;29;20913;-74
2023/05/03 08:01:38;;;;;;;21.60;14.70;;;12.90;99.90;;;12.18;100.00;98114.53;4921181;29;20425;-75
2023/05/03 08:04:04;;;;;;;30.25;18.73;;;12.90;99.90;;;12.21;100.00;98109.53;4932218;29;20419;-76
2023/05/03 08:06:30;;;;;;;21.05;14.65;;;13.00;99.90;;;12.24;100.00;98109.06;4934903;29;20424;-75
2023/05/03 08:08:56;;;;;;;20.77;14.50;;;13.00;99.90;;;12.29;100.00;98111.78;4935982;29;20479;-75
2023/05/03 08:11:22;;;;;;;23.35;15.30;;;13.10;99.90;;;12.35;100.00;98115.28;4923157;29;20423;-75
2023/05/03 08:13:49;;;;;;;21.27;14.57;;;13.10;99.90;;;12.48;100.00;98119.47;4916758;29;20413;-75
2023/05/03 08:16:15;;;;;;;26.63;16.27;;;13.20;99.90;;;12.51;100.00;98113.66;4918105;29;20570;-76
2023/05/03 08:18:41;;;;;;;20.60;14.27;;;13.30;99.90;;;12.53;100.00;98115.03;4934718;29;20866;-75
2023/05/03 08:21:08;;;;;;;23.92;15.48;;;13.30;99.90;;;12.55;100.00;98109.47;4935472;29;20420;-75
2023/05/03 08:23:34;;;;;;;19.58;13.65;;;13.30;99.90;;;12.61;100.00;98114.59;4935473;29;20785;-75
2023/05/03 08:26:03;;;;;;;18.70;13.38;;;13.40;99.90;;;12.71;100.00;98116.56;4935266;29;20411;-74
2023/05/03 08:28:29;;;;;;;24.50;16.25;;;13.40;99.90;;;12.69;100.00;98110.72;4933001;29;20431;-75
2023/05/03 08:30:57;;;;;;;24.80;16.00;;;13.40;99.90;;;12.81;100.00;98116.69;4933299;29;20419;-75
2023/05/03 08:33:23;;;;;;;19.47;13.83;;;13.60;99.90;;;12.86;100.00;98122.06;4916237;29;20494;-74
2023/05/03 08:35:49;;;;;;;20.00;13.82;;;13.60;99.90;;;12.95;100.00;98119.78;4922536;29;20786;-75
2023/05/03 08:38:15;;;;;;;21.10;13.52;;;13.70;99.90;;;13.02;100.00;98115.88;4920824;29;20425;-76
2023/05/03 08:40:41;;;;;;;18.23;12.60;;;13.70;99.90;;;13.18;100.00;98117.69;4918930;29;20417;-75
2023/05/03 08:43:08;;;;;;;15.20;11.50;;;13.90;99.90;;;13.32;100.00;98117.28;4915909;29;20417;-75
2023/05/03 08:45:34;;;;;;;31.00;18.00;;;14.00;99.90;;;13.40;100.00;98115.00;4915992;29;20441;-74
2023/05/03 08:48:03;;;;;;;16.17;12.32;;;14.20;99.90;;;13.36;100.00;98119.22;4915740;29;20417;-74
2023/05/03 08:50:30;;;;;;;19.70;13.32;;;14.10;99.90;;;13.34;100.00;98120.53;4929167;29;20415;-74
2023/05/03 08:52:58;;;;;;;20.33;13.38;;;14.00;99.90;;;13.32;100.00;98112.78;4933863;28;20485;-75
2023/05/03 08:55:23;;;;;;;17.42;12.32;;;14.00;99.90;;;13.40;100.00;98108.88;4934786;29;20463;-75
2023/05/03 08:57:49;;;;;;;18.08;12.75;;;14.10;99.90;;;13.51;100.00;98113.25;4934667;29;20446;-74
2023/05/03 09:00:18;;;;;;;14.93;11.48;;;14.20;99.90;;;13.66;100.00;98121.38;4933334;29;20506;-74
2023/05/03 09:02:44;;;;;;;18.38;11.80;;;14.30;99.90;;;13.77;100.00;98124.91;4921816;29;20907;-75
2023/05/03 09:05:33;;;;;;;16.77;12.33;;;14.50;99.90;;;13.81;100.00;98123.38;4933201;29;20444;-75
2023/05/03 09:08:04;;;;;;;17.33;12.60;;;14.50;99.90;;;13.82;100.00;98117.00;4929399;29;20783;-74
2023/05/03 09:10:33;;;;;;;16.67;12.43;;;14.50;99.90;;;13.89;100.00;98129.03;4932794;29;20415;-75
2023/05/03 09:13:01;;;;;;;20.15;12.93;;;14.60;99.90;;;13.87;100.00;98135.66;4918976;29;20481;-75
2023/05/03 09:15:29;;;;;;;19.15;12.55;;;14.60;99.90;;;14.00;100.00;98132.56;4932838;29;20423;-76
2023/05/03 09:18:14;;;;;;;18.38;12.40;;;14.70;99.90;;;14.11;100.00;98136.09;4927967;29;20618;-74
2023/05/03 09:20:50;;;;;;;17.02;11.77;;;14.70;99.90;;;14.31;100.00;98129.06;4926789;29;20420;-74
2023/05/03 09:23:17;;;;;;;16.65;11.75;;;14.90;99.90;;;14.47;100.00;98124.66;4925334;29;20424;-75
2023/05/03 09:25:46;;;;;;;16.25;11.00;;;15.10;99.90;;;14.55;100.00;98126.03;4926691;29;20414;-75
2023/05/03 09:28:13;;;;;;;12.70;10.18;;;15.20;99.90;;;14.66;100.00;98128.47;4926497;29;20439;-75
2023/05/03 09:30:39;;;;;;;17.45;11.77;;;15.30;99.90;;;14.80;100.00;98122.72;4919424;29;20415;-75
2023/05/03 09:33:05;;;;;;;16.30;10.80;;;15.40;99.90;;;14.82;100.00;98118.69;4926781;29;20421;-76
2023/05/03 09:35:33;;;;;;;15.23;11.00;;;15.40;99.90;;;15.01;100.00;98124.38;4922268;29;20423;-75
2023/05/03 09:38:01;;;;;;;12.95;10.25;;;15.60;99.90;;;15.07;100.00;98110.00;4924971;29;20455;-75
2023/05/03 09:40:28;;;;;;;13.45;9.93;;;15.70;99.90;;;15.14;100.00;98112.44;4929688;29;20423;-75
2023/05/03 09:43:10;;;;;;;17.60;12.38;;;15.80;99.90;;;15.19;100.00;98121.22;4925297;29;20429;-76
2023/05/03 09:45:37;;;;;;;16.17;11.63;;;15.80;99.90;;;15.22;100.00;98118.06;4916723;29;20486;-75
2023/05/03 09:48:06;;;;;;;16.88;10.40;;;15.90;99.90;;;15.30;100.00;98116.75;4924358;29;20478;-75
2023/05/03 09:50:32;;;;;;;12.85;10.13;;;15.90;99.90;;;15.34;100.00;98113.28;4926220;29;20427;-75
2023/05/03 09:53:04;;;;;;;14.52;10.07;;;16.00;99.90;;;15.49;100.00;98115.97;4919289;29;20419;-76
2023/05/03 09:55:35;;;;;;;11.93;9.55;;;16.10;99.90;;;15.78;100.00;98110.19;4917078;29;20432;-76
2023/05/03 09:58:06;;;;;;;13.43;11.05;;;16.30;99.90;;;15.87;100.00;98103.22;4922152;29;20437;-75
2023/05/03 10:00:36;;;;;;;11.35;8.90;;;16.50;99.90;;;15.93;100.00;98110.19;4929489;29;20426;-77
2023/05/03 10:03:07;;;;;;;12.98;9.30;;;16.50;99.90;;;16.13;100.00;98104.81;4926993;29;20488;-75
2023/05/03 10:05:45;;;;;;;12.18;9.40;;;16.70;99.90;;;16.23;100.00;98106.69;4920684;29;20417;-76